sensor_id;sensor_type;location;lat;lon;timestamp;P1;durP1;ratioP1;P2;durP2;ratioP2
30723;SDS011;17473;52.286;20.930;2024-02-21T00:00:38;10.37;;;4.00;;
30723;SDS011;17473;52.286;20.930;2024-02-21T00:03:05;14.87;;;5.20;;
30723;SDS011;17473;52.286;20.930;2024-02-21T00:05:32;12.17;;;5.07;;
30723;SDS011;17473;52.286;20.930;2024-02-21T00:07:59;13.07;;;4.60;;
30723;SDS011;17473;52.286;20.930;2024-02-21T00:10:27;17.27;;;5.17;;
30723;SDS011;17473;52.286;20.930;2024-02-21T00:12:54;16.57;;;4.73;;
30723;SDS011;17473;52.286;20.930;2024-02-21T00:15:21;15.13;;;5.07;;
30723;SDS011;17473;52.286;20.930;2024-02-21T00:17:48;10.43;;;4.27;;
30723;SDS011;17473;52.286;20.930;2024-02-21T00:20:15;12.93;;;5.20;;
30723;SDS011;17473;52.286;20.930;2024-02-21T00:22:42;15.70;;;5.70;;
30723;SDS011;17473;52.286;20.930;2024-02-21T00:25:10;12.07;;;4.07;;
30723;SDS011;17473;52.286;20.930;2024-02-21T00:27:37;13.50;;;4.97;;
30723;SDS011;17473;52.286;20.930;2024-02-21T00:30:05;16.03;;;5.23;;
30723;SDS011;17473;52.286;20.930;2024-02-21T00:32:32;12.50;;;4.17;;
30723;SDS011;17473;52.286;20.930;2024-02-21T00:35:01;15.87;;;4.60;;
30723;SDS011;17473;52.286;20.930;2024-02-21T00:37:28;14.60;;;4.63;;
30723;SDS011;17473;52.286;20.930;2024-02-21T00:39:55;10.53;;;4.00;;
30723;SDS011;17473;52.286;20.930;2024-02-21T00:42:21;14.80;;;4.50;;
30723;SDS011;17473;52.286;20.930;2024-02-21T00:44:49;15.00;;;5.37;;
30723;SDS011;17473;52.286;20.930;2024-02-21T00:47:16;16.07;;;4.87;;
30723;SDS011;17473;52.286;20.930;2024-02-21T00:49:42;12.20;;;4.17;;
30723;SDS011;17473;52.286;20.930;2024-02-21T00:52:09;16.10;;;5.97;;
30723;SDS011;17473;52.286;20.930;2024-02-21T00:54:36;15.87;;;5.17;;
30723;SDS011;17473;52.286;20.930;2024-02-21T00:57:16;12.67;;;4.90;;
30723;SDS011;17473;52.286;20.930;2024-02-21T00:59:43;12.47;;;4.80;;
30723;SDS011;17473;52.286;20.930;2024-02-21T01:02:10;13.10;;;4.90;;
30723;SDS011;17473;52.286;20.930;2024-02-21T01:04:37;14.17;;;4.87;;
30723;SDS011;17473;52.286;20.930;2024-02-21T01:07:04;18.40;;;6.33;;
30723;SDS011;17473;52.286;20.930;2024-02-21T01:09:30;21.03;;;5.33;;
30723;SDS011;17473;52.286;20.930;2024-02-21T01:11:57;16.53;;;6.07;;
30723;SDS011;17473;52.286;20.930;2024-02-21T01:14:24;16.40;;;5.57;;
30723;SDS011;17473;52.286;20.930;2024-02-21T01:16:51;14.70;;;5.73;;
30723;SDS011;17473;52.286;20.930;2024-02-21T01:19:18;19.50;;;5.30;;
30723;SDS011;17473;52.286;20.930;2024-02-21T01:21:46;11.03;;;5.00;;
30723;SDS011;17473;52.286;20.930;2024-02-21T01:24:13;15.97;;;5.03;;
30723;SDS011;17473;52.286;20.930;2024-02-21T01:26:40;13.13;;;5.33;;
30723;SDS011;17473;52.286;20.930;2024-02-21T01:29:07;19.27;;;5.97;;
30723;SDS011;17473;52.286;20.930;2024-02-21T01:31:34;17.33;;;5.33;;
30723;SDS011;17473;52.286;20.930;2024-02-21T01:34:01;14.67;;;5.47;;
30723;SDS011;17473;52.286;20.930;2024-02-21T01:36:28;12.47;;;5.43;;
30723;SDS011;17473;52.286;20.930;2024-02-21T01:38:55;20.60;;;5.97;;
30723;SDS011;17473;52.286;20.930;2024-02-21T01:41:22;23.83;;;6.67;;
30723;SDS011;17473;52.286;20.930;2024-02-21T01:43:49;17.40;;;5.87;;
30723;SDS011;17473;52.286;20.930;2024-02-21T01:46:16;16.03;;;6.00;;
30723;SDS011;17473;52.286;20.930;2024-02-21T01:48:43;15.67;;;5.80;;
30723;SDS011;17473;52.286;20.930;2024-02-21T01:51:12;15.70;;;6.03;;
30723;SDS011;17473;52.286;20.930;2024-02-21T01:53:42;17.37;;;5.93;;
30723;SDS011;17473;52.286;20.930;2024-02-21T01:56:09;14.67;;;6.13;;
30723;SDS011;17473;52.286;20.930;2024-02-21T01:58:37;18.27;;;6.00;;
30723;SDS011;17473;52.286;20.930;2024-02-21T02:01:04;16.70;;;6.37;;
30723;SDS011;17473;52.286;20.930;2024-02-21T02:03:31;19.77;;;6.77;;
30723;SDS011;17473;52.286;20.930;2024-02-21T02:05:58;18.10;;;6.47;;
30723;SDS011;17473;52.286;20.930;2024-02-21T02:08:25;14.80;;;6.27;;
30723;SDS011;17473;52.286;20.930;2024-02-21T02:10:52;14.30;;;5.83;;
30723;SDS011;17473;52.286;20.930;2024-02-21T02:13:19;16.57;;;6.73;;
30723;SDS011;17473;52.286;20.930;2024-02-21T02:15:46;13.63;;;6.33;;
30723;SDS011;17473;52.286;20.930;2024-02-21T02:18:15;15.67;;;6.73;;
30723;SDS011;17473;52.286;20.930;2024-02-21T02:20:43;20.60;;;6.73;;
30723;SDS011;17473;52.286;20.930;2024-02-21T02:25:41;16.80;;;6.13;;
30723;SDS011;17473;52.286;20.930;2024-02-21T02:28:08;17.80;;;5.93;;
30723;SDS011;17473;52.286;20.930;2024-02-21T02:30:35;13.43;;;6.70;;
30723;SDS011;17473;52.286;20.930;2024-02-21T02:33:03;14.47;;;6.77;;
30723;SDS011;17473;52.286;20.930;2024-02-21T02:35:31;20.90;;;6.63;;
30723;SDS011;17473;52.286;20.930;2024-02-21T02:37:58;19.87;;;7.17;;
30723;SDS011;17473;52.286;20.930;2024-02-21T02:40:25;14.27;;;7.00;;
30723;SDS011;17473;52.286;20.930;2024-02-21T02:42:52;15.13;;;6.80;;
30723;SDS011;17473;52.286;20.930;2024-02-21T02:45:21;17.50;;;6.87;;
30723;SDS011;17473;52.286;20.930;2024-02-21T02:47:58;14.90;;;6.50;;
30723;SDS011;17473;52.286;20.930;2024-02-21T02:50:25;20.70;;;6.80;;
30723;SDS011;17473;52.286;20.930;2024-02-21T02:52:53;16.97;;;6.63;;
30723;SDS011;17473;52.286;20.930;2024-02-21T02:55:21;12.47;;;6.10;;
30723;SDS011;17473;52.286;20.930;2024-02-21T02:57:49;18.53;;;6.87;;
30723;SDS011;17473;52.286;20.930;2024-02-21T03:00:16;18.50;;;6.93;;
30723;SDS011;17473;52.286;20.930;2024-02-21T03:02:43;24.70;;;7.30;;
30723;SDS011;17473;52.286;20.930;2024-02-21T03:05:13;26.37;;;8.57;;
30723;SDS011;17473;52.286;20.930;2024-02-21T03:07:42;15.13;;;7.30;;
30723;SDS011;17473;52.286;20.930;2024-02-21T03:10:09;14.00;;;6.67;;
30723;SDS011;17473;52.286;20.930;2024-02-21T03:12:37;19.43;;;7.10;;
30723;SDS011;17473;52.286;20.930;2024-02-21T03:15:04;17.40;;;7.30;;
30723;SDS011;17473;52.286;20.930;2024-02-21T03:17:32;17.53;;;7.77;;
30723;SDS011;17473;52.286;20.930;2024-02-21T03:20:03;17.47;;;7.17;;
30723;SDS011;17473;52.286;20.930;2024-02-21T03:22:38;18.67;;;7.47;;
30723;SDS011;17473;52.286;20.930;2024-02-21T03:25:06;17.03;;;7.23;;
30723;SDS011;17473;52.286;20.930;2024-02-21T03:27:34;17.70;;;6.73;;
30723;SDS011;17473;52.286;20.930;2024-02-21T03:30:01;15.40;;;7.53;;
30723;SDS011;17473;52.286;20.930;2024-02-21T03:32:28;16.03;;;6.87;;
30723;SDS011;17473;52.286;20.930;2024-02-21T03:34:56;22.43;;;7.03;;
30723;SDS011;17473;52.286;20.930;2024-02-21T03:37:23;16.37;;;6.83;;
30723;SDS011;17473;52.286;20.930;2024-02-21T03:39:50;14.33;;;6.40;;
30723;SDS011;17473;52.286;20.930;2024-02-21T03:42:17;15.53;;;7.50;;
30723;SDS011;17473;52.286;20.930;2024-02-21T03:44:44;21.47;;;7.53;;
30723;SDS011;17473;52.286;20.930;2024-02-21T03:47:11;16.10;;;6.77;;
30723;SDS011;17473;52.286;20.930;2024-02-21T03:49:38;18.93;;;6.73;;
30723;SDS011;17473;52.286;20.930;2024-02-21T03:52:06;22.00;;;8.63;;
30723;SDS011;17473;52.286;20.930;2024-02-21T03:54:32;19.23;;;6.53;;
30723;SDS011;17473;52.286;20.930;2024-02-21T03:56:59;13.70;;;7.23;;
30723;SDS011;17473;52.286;20.930;2024-02-21T03:59:26;19.83;;;8.07;;
30723;SDS011;17473;52.286;20.930;2024-02-21T04:01:53;21.23;;;7.37;;
30723;SDS011;17473;52.286;20.930;2024-02-21T04:04:20;12.83;;;6.97;;
30723;SDS011;17473;52.286;20.930;2024-02-21T04:06:48;14.27;;;7.27;;
30723;SDS011;17473;52.286;20.930;2024-02-21T04:09:15;18.77;;;6.93;;
30723;SDS011;17473;52.286;20.930;2024-02-21T04:11:42;16.77;;;7.37;;
30723;SDS011;17473;52.286;20.930;2024-02-21T04:14:09;19.33;;;8.27;;
30723;SDS011;17473;52.286;20.930;2024-02-21T04:16:38;19.97;;;7.03;;
30723;SDS011;17473;52.286;20.930;2024-02-21T04:19:06;17.33;;;7.47;;
30723;SDS011;17473;52.286;20.930;2024-02-21T04:21:34;18.33;;;8.40;;
30723;SDS011;17473;52.286;20.930;2024-02-21T04:24:01;16.33;;;7.30;;
30723;SDS011;17473;52.286;20.930;2024-02-21T04:26:32;26.83;;;8.13;;
30723;SDS011;17473;52.286;20.930;2024-02-21T04:29:00;19.00;;;8.73;;
30723;SDS011;17473;52.286;20.930;2024-02-21T04:31:27;19.93;;;8.20;;
30723;SDS011;17473;52.286;20.930;2024-02-21T04:33:55;18.00;;;8.33;;
30723;SDS011;17473;52.286;20.930;2024-02-21T04:36:22;15.30;;;7.50;;
30723;SDS011;17473;52.286;20.930;2024-02-21T04:38:50;20.03;;;8.13;;
30723;SDS011;17473;52.286;20.930;2024-02-21T04:41:17;18.97;;;7.87;;
30723;SDS011;17473;52.286;20.930;2024-02-21T04:43:45;22.40;;;7.97;;
30723;SDS011;17473;52.286;20.930;2024-02-21T04:46:13;18.67;;;8.43;;
30723;SDS011;17473;52.286;20.930;2024-02-21T04:48:40;19.87;;;7.83;;
30723;SDS011;17473;52.286;20.930;2024-02-21T04:51:07;18.90;;;8.30;;
30723;SDS011;17473;52.286;20.930;2024-02-21T04:53:34;21.43;;;8.70;;
30723;SDS011;17473;52.286;20.930;2024-02-21T04:56:01;20.70;;;9.47;;
30723;SDS011;17473;52.286;20.930;2024-02-21T04:58:28;20.30;;;8.60;;
30723;SDS011;17473;52.286;20.930;2024-02-21T05:00:55;22.17;;;9.57;;
30723;SDS011;17473;52.286;20.930;2024-02-21T05:03:22;20.63;;;8.53;;
30723;SDS011;17473;52.286;20.930;2024-02-21T05:05:49;20.37;;;9.10;;
30723;SDS011;17473;52.286;20.930;2024-02-21T05:08:16;22.20;;;9.80;;
30723;SDS011;17473;52.286;20.930;2024-02-21T05:10:43;20.07;;;9.30;;
30723;SDS011;17473;52.286;20.930;2024-02-21T05:13:10;23.37;;;9.80;;
30723;SDS011;17473;52.286;20.930;2024-02-21T05:15:36;22.03;;;9.90;;
30723;SDS011;17473;52.286;20.930;2024-02-21T05:18:03;28.07;;;9.43;;
30723;SDS011;17473;52.286;20.930;2024-02-21T05:20:31;23.67;;;10.20;;
30723;SDS011;17473;52.286;20.930;2024-02-21T05:22:58;19.70;;;9.37;;
30723;SDS011;17473;52.286;20.930;2024-02-21T05:25:25;26.70;;;8.67;;
30723;SDS011;17473;52.286;20.930;2024-02-21T05:27:52;22.47;;;9.73;;
30723;SDS011;17473;52.286;20.930;2024-02-21T05:30:20;24.47;;;10.40;;
30723;SDS011;17473;52.286;20.930;2024-02-21T05:32:47;20.47;;;10.03;;
30723;SDS011;17473;52.286;20.930;2024-02-21T05:35:14;22.63;;;10.13;;
30723;SDS011;17473;52.286;20.930;2024-02-21T05:37:41;24.60;;;10.37;;
30723;SDS011;17473;52.286;20.930;2024-02-21T05:40:08;21.20;;;10.63;;
30723;SDS011;17473;52.286;20.930;2024-02-21T05:42:38;21.80;;;10.50;;
30723;SDS011;17473;52.286;20.930;2024-02-21T05:45:05;27.13;;;10.17;;
30723;SDS011;17473;52.286;20.930;2024-02-21T05:47:32;24.73;;;10.37;;
30723;SDS011;17473;52.286;20.930;2024-02-21T05:49:59;23.27;;;9.97;;
30723;SDS011;17473;52.286;20.930;2024-02-21T05:52:26;26.70;;;10.07;;
30723;SDS011;17473;52.286;20.930;2024-02-21T05:54:53;28.60;;;11.13;;
30723;SDS011;17473;52.286;20.930;2024-02-21T05:57:20;23.83;;;11.57;;
30723;SDS011;17473;52.286;20.930;2024-02-21T05:59:47;24.70;;;10.17;;
30723;SDS011;17473;52.286;20.930;2024-02-21T06:02:14;21.33;;;10.87;;
30723;SDS011;17473;52.286;20.930;2024-02-21T06:04:41;21.73;;;10.43;;
30723;SDS011;17473;52.286;20.930;2024-02-21T06:07:09;26.47;;;11.30;;
30723;SDS011;17473;52.286;20.930;2024-02-21T06:09:36;29.10;;;11.67;;
30723;SDS011;17473;52.286;20.930;2024-02-21T06:12:03;23.70;;;10.67;;
30723;SDS011;17473;52.286;20.930;2024-02-21T06:14:30;23.90;;;10.93;;
30723;SDS011;17473;52.286;20.930;2024-02-21T06:16:57;25.00;;;10.60;;
30723;SDS011;17473;52.286;20.930;2024-02-21T06:19:25;26.37;;;10.40;;
30723;SDS011;17473;52.286;20.930;2024-02-21T06:21:52;26.03;;;11.83;;
30723;SDS011;17473;52.286;20.930;2024-02-21T06:24:19;22.43;;;10.90;;
30723;SDS011;17473;52.286;20.930;2024-02-21T06:26:46;25.17;;;11.87;;
30723;SDS011;17473;52.286;20.930;2024-02-21T06:29:12;24.93;;;10.33;;
30723;SDS011;17473;52.286;20.930;2024-02-21T06:31:40;27.67;;;11.50;;
30723;SDS011;17473;52.286;20.930;2024-02-21T06:34:07;29.50;;;11.50;;
30723;SDS011;17473;52.286;20.930;2024-02-21T06:36:34;25.77;;;10.73;;
30723;SDS011;17473;52.286;20.930;2024-02-21T06:39:01;29.60;;;11.13;;
30723;SDS011;17473;52.286;20.930;2024-02-21T06:41:32;28.13;;;11.30;;
30723;SDS011;17473;52.286;20.930;2024-02-21T06:44:00;32.57;;;11.40;;
30723;SDS011;17473;52.286;20.930;2024-02-21T06:46:28;28.57;;;11.53;;
30723;SDS011;17473;52.286;20.930;2024-02-21T06:48:56;32.20;;;13.33;;
30723;SDS011;17473;52.286;20.930;2024-02-21T06:51:24;30.83;;;11.53;;
30723;SDS011;17473;52.286;20.930;2024-02-21T06:53:54;27.70;;;12.07;;
30723;SDS011;17473;52.286;20.930;2024-02-21T06:56:24;31.87;;;12.50;;
30723;SDS011;17473;52.286;20.930;2024-02-21T06:58:57;34.43;;;11.93;;
30723;SDS011;17473;52.286;20.930;2024-02-21T07:01:24;32.77;;;12.70;;
30723;SDS011;17473;52.286;20.930;2024-02-21T07:03:51;29.63;;;12.13;;
30723;SDS011;17473;52.286;20.930;2024-02-21T07:06:18;30.97;;;13.50;;
30723;SDS011;17473;52.286;20.930;2024-02-21T07:08:45;36.87;;;14.10;;
30723;SDS011;17473;52.286;20.930;2024-02-21T07:11:12;29.00;;;12.70;;
30723;SDS011;17473;52.286;20.930;2024-02-21T07:13:39;37.27;;;13.87;;
30723;SDS011;17473;52.286;20.930;2024-02-21T07:16:07;38.53;;;13.20;;
30723;SDS011;17473;52.286;20.930;2024-02-21T07:18:34;32.50;;;13.33;;
30723;SDS011;17473;52.286;20.930;2024-02-21T07:21:01;27.03;;;12.43;;
30723;SDS011;17473;52.286;20.930;2024-02-21T07:23:28;26.40;;;11.43;;
30723;SDS011;17473;52.286;20.930;2024-02-21T07:25:55;27.70;;;12.00;;
30723;SDS011;17473;52.286;20.930;2024-02-21T07:28:22;27.33;;;12.00;;
30723;SDS011;17473;52.286;20.930;2024-02-21T07:30:49;32.37;;;12.50;;
30723;SDS011;17473;52.286;20.930;2024-02-21T07:33:16;28.70;;;12.63;;
30723;SDS011;17473;52.286;20.930;2024-02-21T07:35:43;32.87;;;14.53;;
30723;SDS011;17473;52.286;20.930;2024-02-21T07:38:11;39.70;;;12.83;;
30723;SDS011;17473;52.286;20.930;2024-02-21T07:40:39;32.53;;;14.03;;
30723;SDS011;17473;52.286;20.930;2024-02-21T07:43:06;34.40;;;12.83;;
30723;SDS011;17473;52.286;20.930;2024-02-21T07:45:33;35.50;;;13.53;;
30723;SDS011;17473;52.286;20.930;2024-02-21T07:48:00;41.13;;;13.73;;
30723;SDS011;17473;52.286;20.930;2024-02-21T07:50:27;36.00;;;12.43;;
30723;SDS011;17473;52.286;20.930;2024-02-21T07:52:54;35.73;;;12.43;;
30723;SDS011;17473;52.286;20.930;2024-02-21T07:55:21;35.13;;;12.30;;
30723;SDS011;17473;52.286;20.930;2024-02-21T07:57:48;28.30;;;12.00;;
30723;SDS011;17473;52.286;20.930;2024-02-21T08:00:16;36.53;;;13.17;;
30723;SDS011;17473;52.286;20.930;2024-02-21T08:02:48;39.23;;;14.33;;
30723;SDS011;17473;52.286;20.930;2024-02-21T08:05:15;33.50;;;13.43;;
30723;SDS011;17473;52.286;20.930;2024-02-21T08:07:42;33.77;;;14.03;;
30723;SDS011;17473;52.286;20.930;2024-02-21T08:10:09;35.77;;;13.67;;
30723;SDS011;17473;52.286;20.930;2024-02-21T08:12:36;38.33;;;14.53;;
30723;SDS011;17473;52.286;20.930;2024-02-21T08:15:04;34.07;;;15.00;;
30723;SDS011;17473;52.286;20.930;2024-02-21T08:17:31;38.80;;;14.90;;
30723;SDS011;17473;52.286;20.930;2024-02-21T08:19:58;36.73;;;14.63;;
30723;SDS011;17473;52.286;20.930;2024-02-21T08:22:25;33.87;;;14.10;;
30723;SDS011;17473;52.286;20.930;2024-02-21T08:24:53;36.60;;;13.87;;
30723;SDS011;17473;52.286;20.930;2024-02-21T08:27:20;38.20;;;14.27;;
30723;SDS011;17473;52.286;20.930;2024-02-21T08:29:47;35.63;;;14.83;;
30723;SDS011;17473;52.286;20.930;2024-02-21T08:32:14;28.97;;;14.20;;
30723;SDS011;17473;52.286;20.930;2024-02-21T08:34:41;43.20;;;14.23;;
30723;SDS011;17473;52.286;20.930;2024-02-21T08:37:08;35.33;;;15.07;;
30723;SDS011;17473;52.286;20.930;2024-02-21T08:39:37;31.80;;;13.67;;
30723;SDS011;17473;52.286;20.930;2024-02-21T08:42:04;39.67;;;14.07;;
30723;SDS011;17473;52.286;20.930;2024-02-21T08:44:31;41.20;;;14.77;;
30723;SDS011;17473;52.286;20.930;2024-02-21T08:46:58;42.37;;;14.60;;
30723;SDS011;17473;52.286;20.930;2024-02-21T08:49:26;32.27;;;13.90;;
30723;SDS011;17473;52.286;20.930;2024-02-21T08:52:00;33.47;;;14.13;;
30723;SDS011;17473;52.286;20.930;2024-02-21T08:54:27;37.87;;;15.17;;
30723;SDS011;17473;52.286;20.930;2024-02-21T08:56:54;41.20;;;15.10;;
30723;SDS011;17473;52.286;20.930;2024-02-21T08:59:21;32.30;;;14.63;;
30723;SDS011;17473;52.286;20.930;2024-02-21T09:01:48;28.83;;;13.03;;
30723;SDS011;17473;52.286;20.930;2024-02-21T09:04:15;43.30;;;16.40;;
30723;SDS011;17473;52.286;20.930;2024-02-21T09:06:42;40.03;;;14.77;;
30723;SDS011;17473;52.286;20.930;2024-02-21T09:09:10;36.27;;;14.70;;
30723;SDS011;17473;52.286;20.930;2024-02-21T09:11:36;44.03;;;15.77;;
30723;SDS011;17473;52.286;20.930;2024-02-21T09:14:03;33.27;;;14.87;;
30723;SDS011;17473;52.286;20.930;2024-02-21T09:16:33;33.47;;;15.23;;
30723;SDS011;17473;52.286;20.930;2024-02-21T09:19:00;37.50;;;13.43;;
30723;SDS011;17473;52.286;20.930;2024-02-21T09:21:27;36.40;;;13.27;;
30723;SDS011;17473;52.286;20.930;2024-02-21T09:23:55;32.43;;;13.20;;
30723;SDS011;17473;52.286;20.930;2024-02-21T09:26:25;32.63;;;14.37;;
30723;SDS011;17473;52.286;20.930;2024-02-21T09:28:52;31.57;;;13.80;;
30723;SDS011;17473;52.286;20.930;2024-02-21T09:31:20;27.03;;;12.73;;
30723;SDS011;17473;52.286;20.930;2024-02-21T09:33:47;33.07;;;13.67;;
30723;SDS011;17473;52.286;20.930;2024-02-21T09:36:15;27.93;;;13.23;;
30723;SDS011;17473;52.286;20.930;2024-02-21T09:38:42;28.27;;;13.93;;
30723;SDS011;17473;52.286;20.930;2024-02-21T09:41:16;29.17;;;12.30;;
30723;SDS011;17473;52.286;20.930;2024-02-21T09:43:50;31.20;;;13.30;;
30723;SDS011;17473;52.286;20.930;2024-02-21T09:46:21;36.27;;;12.67;;
30723;SDS011;17473;52.286;20.930;2024-02-21T09:51:38;35.30;;;11.90;;
30723;SDS011;17473;52.286;20.930;2024-02-21T09:54:07;24.57;;;10.53;;
30723;SDS011;17473;52.286;20.930;2024-02-21T09:56:42;25.93;;;10.77;;
30723;SDS011;17473;52.286;20.930;2024-02-21T09:59:13;36.47;;;11.13;;
30723;SDS011;17473;52.286;20.930;2024-02-21T10:01:42;23.37;;;9.17;;
30723;SDS011;17473;52.286;20.930;2024-02-21T10:04:10;34.57;;;9.40;;
30723;SDS011;17473;52.286;20.930;2024-02-21T10:06:38;20.97;;;9.03;;
30723;SDS011;17473;52.286;20.930;2024-02-21T10:09:06;26.63;;;10.23;;
30723;SDS011;17473;52.286;20.930;2024-02-21T10:11:33;32.27;;;10.40;;
30723;SDS011;17473;52.286;20.930;2024-02-21T10:14:04;25.20;;;9.13;;
30723;SDS011;17473;52.286;20.930;2024-02-21T10:16:31;29.60;;;10.17;;
30723;SDS011;17473;52.286;20.930;2024-02-21T10:19:00;25.03;;;8.70;;
30723;SDS011;17473;52.286;20.930;2024-02-21T10:21:27;37.17;;;11.40;;
30723;SDS011;17473;52.286;20.930;2024-02-21T10:23:54;29.57;;;9.83;;
30723;SDS011;17473;52.286;20.930;2024-02-21T10:26:21;25.00;;;9.97;;
30723;SDS011;17473;52.286;20.930;2024-02-21T10:28:48;28.67;;;10.20;;
30723;SDS011;17473;52.286;20.930;2024-02-21T10:31:22;23.40;;;9.63;;
30723;SDS011;17473;52.286;20.930;2024-02-21T10:33:57;50.03;;;14.60;;
30723;SDS011;17473;52.286;20.930;2024-02-21T10:36:26;43.40;;;12.17;;
30723;SDS011;17473;52.286;20.930;2024-02-21T10:38:53;28.83;;;10.70;;
30723;SDS011;17473;52.286;20.930;2024-02-21T10:41:23;31.10;;;10.40;;
30723;SDS011;17473;52.286;20.930;2024-02-21T10:43:51;28.77;;;11.17;;
30723;SDS011;17473;52.286;20.930;2024-02-21T10:46:23;28.00;;;9.77;;
30723;SDS011;17473;52.286;20.930;2024-02-21T10:48:59;39.27;;;10.77;;
30723;SDS011;17473;52.286;20.930;2024-02-21T10:51:34;42.60;;;12.77;;
30723;SDS011;17473;52.286;20.930;2024-02-21T10:56:34;28.23;;;11.90;;
30723;SDS011;17473;52.286;20.930;2024-02-21T10:59:06;22.33;;;10.53;;
30723;SDS011;17473;52.286;20.930;2024-02-21T11:01:34;35.03;;;11.80;;
30723;SDS011;17473;52.286;20.930;2024-02-21T11:04:06;27.17;;;12.40;;
30723;SDS011;17473;52.286;20.930;2024-02-21T11:06:38;25.90;;;10.63;;
30723;SDS011;17473;52.286;20.930;2024-02-21T11:09:07;27.83;;;10.27;;
30723;SDS011;17473;52.286;20.930;2024-02-21T11:11:37;33.70;;;12.53;;
30723;SDS011;17473;52.286;20.930;2024-02-21T11:14:09;40.17;;;14.10;;
30723;SDS011;17473;52.286;20.930;2024-02-21T11:16:38;30.30;;;12.83;;
30723;SDS011;17473;52.286;20.930;2024-02-21T11:19:09;34.57;;;12.07;;
30723;SDS011;17473;52.286;20.930;2024-02-21T11:21:58;24.57;;;10.90;;
30723;SDS011;17473;52.286;20.930;2024-02-21T11:24:33;29.93;;;11.87;;
30723;SDS011;17473;52.286;20.930;2024-02-21T11:27:14;46.77;;;13.63;;
30723;SDS011;17473;52.286;20.930;2024-02-21T11:29:46;24.00;;;12.53;;
30723;SDS011;17473;52.286;20.930;2024-02-21T11:32:14;26.80;;;13.27;;
30723;SDS011;17473;52.286;20.930;2024-02-21T11:34:52;29.93;;;11.87;;
30723;SDS011;17473;52.286;20.930;2024-02-21T11:37:27;28.93;;;12.43;;
30723;SDS011;17473;52.286;20.930;2024-02-21T11:39:55;26.20;;;11.83;;
30723;SDS011;17473;52.286;20.930;2024-02-21T11:42:22;24.17;;;11.10;;
30723;SDS011;17473;52.286;20.930;2024-02-21T11:44:51;29.10;;;11.63;;
30723;SDS011;17473;52.286;20.930;2024-02-21T11:47:19;28.80;;;11.77;;
30723;SDS011;17473;52.286;20.930;2024-02-21T11:49:46;39.07;;;13.27;;
30723;SDS011;17473;52.286;20.930;2024-02-21T11:52:16;28.53;;;11.37;;
30723;SDS011;17473;52.286;20.930;2024-02-21T11:54:45;31.90;;;13.13;;
30723;SDS011;17473;52.286;20.930;2024-02-21T11:57:12;36.97;;;13.73;;
30723;SDS011;17473;52.286;20.930;2024-02-21T11:59:40;26.23;;;12.90;;
30723;SDS011;17473;52.286;20.930;2024-02-21T12:02:07;35.67;;;13.17;;
30723;SDS011;17473;52.286;20.930;2024-02-21T12:04:35;27.37;;;12.77;;
30723;SDS011;17473;52.286;20.930;2024-02-21T12:07:03;27.10;;;12.30;;
30723;SDS011;17473;52.286;20.930;2024-02-21T12:09:31;35.17;;;12.30;;
30723;SDS011;17473;52.286;20.930;2024-02-21T12:12:01;27.83;;;12.20;;
30723;SDS011;17473;52.286;20.930;2024-02-21T12:14:32;33.07;;;12.20;;
30723;SDS011;17473;52.286;20.930;2024-02-21T12:17:01;28.97;;;13.37;;
30723;SDS011;17473;52.286;20.930;2024-02-21T12:19:32;43.67;;;13.63;;
30723;SDS011;17473;52.286;20.930;2024-02-21T12:22:00;33.63;;;12.37;;
30723;SDS011;17473;52.286;20.930;2024-02-21T12:24:28;26.73;;;12.10;;
30723;SDS011;17473;52.286;20.930;2024-02-21T12:26:55;29.77;;;12.03;;
30723;SDS011;17473;52.286;20.930;2024-02-21T12:29:25;28.37;;;12.30;;
30723;SDS011;17473;52.286;20.930;2024-02-21T12:31:52;33.80;;;11.77;;
30723;SDS011;17473;52.286;20.930;2024-02-21T12:34:21;30.77;;;12.20;;
30723;SDS011;17473;52.286;20.930;2024-02-21T12:37:04;38.23;;;13.47;;
30723;SDS011;17473;52.286;20.930;2024-02-21T12:39:31;28.20;;;13.30;;
30723;SDS011;17473;52.286;20.930;2024-02-21T12:41:58;27.80;;;12.10;;
30723;SDS011;17473;52.286;20.930;2024-02-21T12:44:26;45.53;;;13.70;;
30723;SDS011;17473;52.286;20.930;2024-02-21T12:46:53;35.37;;;11.93;;
30723;SDS011;17473;52.286;20.930;2024-02-21T12:49:21;28.93;;;12.70;;
30723;SDS011;17473;52.286;20.930;2024-02-21T12:51:49;33.87;;;12.93;;
30723;SDS011;17473;52.286;20.930;2024-02-21T12:54:16;34.97;;;13.67;;
30723;SDS011;17473;52.286;20.930;2024-02-21T12:56:42;50.30;;;12.57;;
30723;SDS011;17473;52.286;20.930;2024-02-21T12:59:09;51.07;;;13.30;;
30723;SDS011;17473;52.286;20.930;2024-02-21T13:01:36;30.10;;;12.17;;
30723;SDS011;17473;52.286;20.930;2024-02-21T13:04:05;26.80;;;13.87;;
30723;SDS011;17473;52.286;20.930;2024-02-21T13:06:32;33.20;;;13.03;;
30723;SDS011;17473;52.286;20.930;2024-02-21T13:08:59;47.33;;;13.13;;
30723;SDS011;17473;52.286;20.930;2024-02-21T13:11:31;27.20;;;11.93;;
30723;SDS011;17473;52.286;20.930;2024-02-21T13:14:00;26.30;;;12.00;;
30723;SDS011;17473;52.286;20.930;2024-02-21T13:16:27;23.87;;;10.40;;
30723;SDS011;17473;52.286;20.930;2024-02-21T13:18:54;26.03;;;10.67;;
30723;SDS011;17473;52.286;20.930;2024-02-21T13:21:21;25.43;;;10.53;;
30723;SDS011;17473;52.286;20.930;2024-02-21T13:23:48;23.83;;;10.40;;
30723;SDS011;17473;52.286;20.930;2024-02-21T13:26:15;26.83;;;11.10;;
30723;SDS011;17473;52.286;20.930;2024-02-21T13:28:42;29.87;;;11.23;;
30723;SDS011;17473;52.286;20.930;2024-02-21T13:31:11;37.80;;;12.30;;
30723;SDS011;17473;52.286;20.930;2024-02-21T13:33:38;32.10;;;12.00;;
30723;SDS011;17473;52.286;20.930;2024-02-21T13:36:06;32.53;;;11.20;;
30723;SDS011;17473;52.286;20.930;2024-02-21T13:38:33;48.07;;;13.83;;
30723;SDS011;17473;52.286;20.930;2024-02-21T13:41:00;28.90;;;10.67;;
30723;SDS011;17473;52.286;20.930;2024-02-21T13:43:27;41.77;;;12.27;;
30723;SDS011;17473;52.286;20.930;2024-02-21T13:45:55;37.00;;;13.30;;
30723;SDS011;17473;52.286;20.930;2024-02-21T13:48:24;30.73;;;11.03;;
30723;SDS011;17473;52.286;20.930;2024-02-21T13:50:52;23.40;;;10.60;;
30723;SDS011;17473;52.286;20.930;2024-02-21T13:53:19;21.43;;;10.53;;
30723;SDS011;17473;52.286;20.930;2024-02-21T13:55:47;21.00;;;11.20;;
30723;SDS011;17473;52.286;20.930;2024-02-21T13:58:14;24.90;;;10.20;;
30723;SDS011;17473;52.286;20.930;2024-02-21T14:00:42;29.20;;;11.00;;
30723;SDS011;17473;52.286;20.930;2024-02-21T14:03:08;33.87;;;12.27;;
30723;SDS011;17473;52.286;20.930;2024-02-21T14:05:36;46.40;;;11.20;;
30723;SDS011;17473;52.286;20.930;2024-02-21T14:08:07;26.60;;;12.13;;
30723;SDS011;17473;52.286;20.930;2024-02-21T14:10:34;22.87;;;10.67;;
30723;SDS011;17473;52.286;20.930;2024-02-21T14:13:01;24.07;;;10.97;;
30723;SDS011;17473;52.286;20.930;2024-02-21T14:15:28;20.80;;;9.80;;
30723;SDS011;17473;52.286;20.930;2024-02-21T14:17:55;22.73;;;9.73;;
30723;SDS011;17473;52.286;20.930;2024-02-21T14:20:22;25.40;;;10.60;;
30723;SDS011;17473;52.286;20.930;2024-02-21T14:22:49;29.73;;;11.17;;
30723;SDS011;17473;52.286;20.930;2024-02-21T14:25:16;35.23;;;10.40;;